createdAt,value
2023-05-01T00:01:30.803Z,4.7
2023-05-01T00:06:36.936Z,4.8
2023-05-01T00:11:42.980Z,4.7
2023-05-01T00:16:49.097Z,4.7
2023-05-01T00:21:55.154Z,4.4
2023-05-01T00:27:01.234Z,4.4
2023-05-01T00:32:07.379Z,4.4
2023-05-01T00:37:13.445Z,4.2
2023-05-01T00:42:19.527Z,4
2023-05-01T00:47:25.642Z,3.9
2023-05-01T00:52:31.718Z,3.7
2023-05-01T00:57:37.827Z,3.6
2023-05-01T01:02:43.958Z,3.5
2023-05-01T01:07:50.006Z,3.3
2023-05-01T01:12:56.123Z,3.4
2023-05-01T01:18:02.213Z,3.4
2023-05-01T01:23:08.324Z,3.3
2023-05-01T01:28:14.438Z,3.3
2023-05-01T01:33:20.515Z,3.1
2023-05-01T01:38:26.629Z,3
2023-05-01T01:43:32.685Z,3.1
2023-05-01T01:48:38.799Z,3
2023-05-01T01:53:44.942Z,3
2023-05-01T01:58:50.950Z,3
2023-05-01T02:03:57.113Z,2.7
2023-05-01T02:09:08.757Z,2.6
2023-05-01T02:14:20.487Z,2.3
2023-05-01T02:19:32.231Z,2.4
2023-05-01T02:24:44.002Z,2.6
2023-05-01T02:29:50.056Z,2.6
2023-05-01T02:34:56.154Z,2.4
2023-05-01T02:40:02.257Z,2.3
2023-05-01T02:45:08.365Z,2.2
2023-05-01T02:50:14.464Z,2.4
2023-05-01T02:55:20.577Z,2.2
2023-05-01T03:00:26.678Z,2.3
2023-05-01T03:05:32.746Z,2.3
2023-05-01T03:10:38.811Z,2.5
2023-05-01T03:15:44.974Z,2.7
2023-05-01T03:20:51.013Z,2.9
2023-05-01T03:25:57.087Z,2.9
2023-05-01T03:31:03.227Z,2.6
2023-05-01T03:36:09.292Z,2.4
2023-05-01T03:41:15.421Z,2.5
2023-05-01T03:46:21.569Z,2.8
2023-05-01T03:51:27.555Z,2.9
2023-05-01T03:56:33.698Z,2.6
2023-05-01T04:01:39.797Z,2.8
2023-05-01T04:06:51.547Z,3
2023-05-01T04:12:03.250Z,3
2023-05-01T04:17:14.994Z,3
2023-05-01T04:22:21.020Z,3
2023-05-01T04:27:27.126Z,3
2023-05-01T04:32:33.213Z,3
2023-05-01T04:37:39.278Z,2.8
2023-05-01T04:42:45.411Z,2.9
2023-05-01T04:47:51.505Z,2.9
2023-05-01T04:52:57.601Z,3.1
2023-05-01T04:58:03.688Z,3
2023-05-01T05:03:09.862Z,2.7
2023-05-01T05:08:15.888Z,2.7
2023-05-01T05:13:21.974Z,2.5
2023-05-01T05:18:28.066Z,2.5
2023-05-01T05:23:34.154Z,2.6
2023-05-01T05:28:40.375Z,2.5
2023-05-01T05:33:46.345Z,2.5
2023-05-01T05:38:52.439Z,2.3
2023-05-01T05:43:58.534Z,2.2
2023-05-01T05:49:04.618Z,2.4
2023-05-01T05:54:10.700Z,2.6
2023-05-01T05:59:22.453Z,2.7
2023-05-01T06:04:28.547Z,2.8
2023-05-01T06:09:40.290Z,2.9
2023-05-01T06:14:46.386Z,2.7
2023-05-01T06:19:52.452Z,2.5
2023-05-01T06:24:58.572Z,2.6
2023-05-01T06:30:04.665Z,2.9
2023-05-01T06:35:10.746Z,2.9
2023-05-01T06:40:16.838Z,2.7
2023-05-01T06:45:22.936Z,2.8
2023-05-01T06:50:29.041Z,2.9
2023-05-01T06:55:35.974Z,3.1
2023-05-01T07:00:41.276Z,3.1
2023-05-01T07:05:47.291Z,3.3
2023-05-01T07:10:53.414Z,3.7
2023-05-01T07:15:59.506Z,3.9
2023-05-01T07:21:05.595Z,4
2023-05-01T07:26:11.688Z,3.8
2023-05-01T07:31:17.784Z,3.8
2023-05-01T07:36:23.884Z,3.8
2023-05-01T07:41:29.972Z,3.8
2023-05-01T07:46:36.088Z,3.8
2023-05-01T07:51:47.783Z,3.7
2023-05-01T07:56:53.893Z,3.7
2023-05-01T08:02:00.018Z,3.7
2023-05-01T08:07:06.065Z,3.3
2023-05-01T08:12:12.178Z,3.4
2023-05-01T08:17:18.257Z,3.6
2023-05-01T08:22:24.362Z,3.8
2023-05-01T08:27:30.468Z,3.6
2023-05-01T08:32:36.608Z,3.6
2023-05-01T08:37:42.624Z,3.3
2023-05-01T08:42:48.750Z,3.4
2023-05-01T08:47:54.864Z,3.6
2023-05-01T08:53:00.925Z,3.6
2023-05-01T08:58:07.002Z,3.6
2023-05-01T09:03:13.153Z,3.6
2023-05-01T09:08:19.205Z,3
2023-05-01T09:13:25.323Z,3.3
2023-05-01T09:18:31.400Z,3.4
2023-05-01T09:23:37.512Z,3.4
2023-05-01T09:28:43.567Z,3.6
2023-05-01T09:33:55.331Z,3.5
2023-05-01T09:39:07.048Z,3.5
2023-05-01T09:44:18.793Z,3.4
2023-05-01T09:49:24.867Z,3.4
2023-05-01T09:54:30.953Z,3.5
2023-05-01T09:59:37.081Z,3.1
2023-05-01T10:04:43.176Z,3
2023-05-01T10:09:49.262Z,3.1
2023-05-01T10:14:55.334Z,3.2
2023-05-01T10:20:01.439Z,3.2
2023-05-01T10:25:07.545Z,3.2
2023-05-01T10:30:13.635Z,3.3
2023-05-01T10:35:19.715Z,3.4
2023-05-01T10:40:25.834Z,3.5
2023-05-01T10:45:32.393Z,3.5
2023-05-01T10:50:38.004Z,3.5
2023-05-01T10:55:44.094Z,3.5
2023-05-01T11:00:50.205Z,3.6
2023-05-01T11:05:56.368Z,3.9
2023-05-01T11:11:02.368Z,4.1
2023-05-01T11:16:08.516Z,4.1
2023-05-01T11:21:14.569Z,4.2
2023-05-01T11:26:26.281Z,4
2023-05-01T11:31:38.077Z,4.1
2023-05-01T11:36:44.141Z,4
2023-05-01T11:41:50.244Z,4.4
2023-05-01T11:46:56.314Z,4.4
2023-05-01T11:52:02.415Z,4.6
2023-05-01T11:57:08.496Z,4.8
2023-05-01T12:02:14.610Z,4.9
2023-05-01T12:07:20.699Z,5
2023-05-01T12:12:26.785Z,5
2023-05-01T12:17:32.960Z,4.9
2023-05-01T12:22:38.983Z,5
2023-05-01T12:27:45.039Z,5
2023-05-01T12:32:51.173Z,5.1
2023-05-01T12:37:57.246Z,5.2
2023-05-01T12:43:03.380Z,5.5
2023-05-01T12:48:09.468Z,5.4
2023-05-01T12:53:15.541Z,5.5
2023-05-01T12:58:21.634Z,5.1
2023-05-01T13:03:27.749Z,5.2
2023-05-01T13:08:33.825Z,5.3
2023-05-01T13:13:45.565Z,4.9
2023-05-01T13:18:51.639Z,5
2023-05-01T13:23:57.751Z,5.2
2023-05-01T13:29:03.833Z,5.5
2023-05-01T13:34:09.949Z,5.5
2023-05-01T13:39:15.985Z,5.4
2023-05-01T13:44:22.126Z,5.3
2023-05-01T13:49:28.241Z,5.4
2023-05-01T13:54:34.294Z,5.3
2023-05-01T13:59:40.404Z,5.2
2023-05-01T14:04:46.644Z,5.4
2023-05-01T14:09:52.598Z,5.6
2023-05-01T14:14:58.908Z,5.6
2023-05-01T14:20:04.859Z,5.6
2023-05-01T14:25:16.482Z,5.5
2023-05-01T14:30:22.612Z,5.5
2023-05-01T14:35:28.674Z,5.6
2023-05-01T14:40:34.754Z,5.6
2023-05-01T14:45:40.880Z,5.7
2023-05-01T14:50:52.638Z,5.7
2023-05-01T14:56:04.368Z,5.9
2023-05-01T15:01:16.088Z,6
2023-05-01T15:06:22.215Z,5.9
2023-05-01T15:11:28.270Z,5.7
2023-05-01T15:16:34.441Z,5.6
2023-05-01T15:21:40.453Z,5.4
2023-05-01T15:26:46.536Z,5.4
2023-05-01T15:32:01.384Z,5.3
2023-05-01T15:36:58.755Z,5.5
2023-05-01T15:42:04.829Z,5.7
2023-05-01T15:47:11.025Z,5.7
2023-05-01T15:52:17.030Z,5.6
2023-05-01T15:57:23.108Z,5.7
2023-05-01T16:02:29.329Z,5.9
2023-05-01T16:07:35.314Z,5.7
2023-05-01T16:12:41.382Z,5.6
2023-05-01T16:17:47.506Z,5.7
2023-05-01T16:22:53.574Z,5.8
2023-05-01T16:27:59.654Z,5.7
2023-05-01T16:33:05.765Z,5.6
2023-05-01T16:38:11.881Z,5.6
2023-05-01T16:43:23.604Z,5.3
2023-05-01T16:48:35.340Z,5
2023-05-01T16:53:41.436Z,4.9
2023-05-01T16:58:47.524Z,5
2023-05-01T17:03:53.697Z,5.1
2023-05-01T17:08:59.699Z,4.8
2023-05-01T17:14:05.787Z,4.6
2023-05-01T17:19:11.905Z,4.4
2023-05-01T17:24:17.991Z,4.3
2023-05-01T17:29:24.100Z,4
2023-05-01T17:34:30.149Z,3.6
2023-05-01T17:39:36.269Z,3.4
2023-05-01T17:44:42.389Z,3.5
2023-05-01T17:49:48.466Z,3.4
2023-05-01T17:54:54.564Z,3.4
2023-05-01T18:00:00.957Z,3.4
2023-05-01T18:05:06.749Z,3.5
2023-05-01T18:10:12.849Z,3.2
2023-05-01T18:15:22.373Z,3.6
2023-05-01T18:20:25.016Z,3.7
2023-05-01T18:25:31.113Z,3.6
2023-05-01T18:30:42.871Z,3.4
2023-05-01T18:35:54.605Z,3.3
2023-05-01T18:41:00.682Z,3.3
2023-05-01T18:46:06.809Z,3.2
2023-05-01T18:51:12.871Z,2.7
2023-05-01T18:56:18.972Z,2.7
2023-05-01T19:01:25.102Z,2.9
2023-05-01T19:06:31.213Z,2.8
2023-05-01T19:11:37.248Z,2.9
2023-05-01T19:16:43.442Z,2.8
2023-05-01T19:21:49.440Z,3
2023-05-01T19:26:55.522Z,3
2023-05-01T19:32:01.628Z,3.1
2023-05-01T19:37:07.704Z,2.9
2023-05-01T19:42:13.789Z,2.6
2023-05-01T19:47:19.964Z,2.8
2023-05-01T19:52:25.973Z,2.9
2023-05-01T19:57:32.128Z,2.6
2023-05-01T20:02:38.251Z,2.6
2023-05-01T20:07:44.269Z,2.6
2023-05-01T20:12:50.349Z,2.5
2023-05-01T20:18:02.105Z,2.6
2023-05-01T20:23:08.204Z,2.6
2023-05-01T20:28:14.300Z,2.7
2023-05-01T20:33:20.392Z,2.6
2023-05-01T20:38:26.455Z,2.5
2023-05-01T20:43:32.579Z,2.5
2023-05-01T20:48:38.651Z,2.4
2023-05-01T20:53:44.759Z,2.4
2023-05-01T20:58:50.851Z,2.4
2023-05-01T21:03:56.995Z,2.5
2023-05-01T21:09:03.017Z,2.7
2023-05-01T21:14:09.176Z,2.7
2023-05-01T21:19:15.199Z,2.7
2023-05-01T21:24:21.309Z,2.7
2023-05-01T21:29:27.459Z,2.6
2023-05-01T21:34:33.488Z,2.5
2023-05-01T21:39:39.596Z,2.6
2023-05-01T21:44:45.703Z,2.6
2023-05-01T21:49:51.769Z,2.6
2023-05-01T21:54:57.871Z,2.6
2023-05-01T22:00:09.612Z,2.7
2023-05-01T22:05:21.336Z,2.8
2023-05-01T22:10:27.441Z,2.9
2023-05-01T22:15:33.535Z,2.9
2023-05-01T22:20:39.635Z,2.8
2023-05-01T22:25:45.754Z,2.5
2023-05-01T22:30:51.876Z,2.7
2023-05-01T22:35:58.194Z,2.9
2023-05-01T22:41:04.265Z,3
2023-05-01T22:46:10.162Z,3
2023-05-01T22:51:17.266Z,3
2023-05-01T22:56:22.322Z,3
2023-05-01T23:01:28.443Z,3
2023-05-01T23:06:34.780Z,3
2023-05-01T23:11:40.642Z,2.9
2023-05-01T23:16:46.710Z,2.9
2023-05-01T23:21:52.792Z,2.8
2023-05-01T23:26:58.864Z,2.7
2023-05-01T23:32:05.004Z,2.6
2023-05-01T23:37:11.046Z,2.6
2023-05-01T23:42:17.168Z,2.7
2023-05-01T23:47:28.919Z,2.7
2023-05-01T23:52:40.655Z,2.7
2023-05-01T23:57:46.698Z,2.7
